Terminal Aerodrome Forecast
Issued by NWS

Home | Current Version | Previous Version | Text Only | Print | Product List | Glossary On
Versions: 1 2 3 4 5 6 7 8 9 10 11 12
000
FTUS46 KEKA 281100
TAFUKI
TAF
KUKI 281139Z 2812/2912 00000KT P6SM SKC
     FM281900 VRB06KT P6SM SKC
     FM282200 18008KT P6SM SCT150
     FM290300 00000KT P6SM SKC=

USA.gov is the U.S. government's official web portal to all federal, state and local government web resources and services.